Links Sitemap Venhuizerweer voor mobiel

AMSTERDAM SCHIPHOL:
Amsterdam Airport Schiphol, Netherlands (EHAM) 52-18N 004-46E -2M
Jun 22, 2018 - 02:55 PM EDT / 2018.06.22 1855 UTC
Wind: from the NNW (330 degrees) at 14 MPH (12 KT) (direction variable):0
Visibility: greater than 7 mile(s):0
Sky conditions: mostly cloudy
Temperature: 55 F (13 C)
Dew Point: 44 F (7 C)
Relative Humidity: 66%
Pressure (altimeter): 30.36 in. Hg (1028 hPa)
ob: EHAM 221855Z 33012KT 300V360 9999 FEW024 BKN032 13/07 Q1028 NOSIG
cycle: 19
DEELEN:
Deelen, Netherlands (EHDL) 52-04N 005-53E 52M
Jun 22, 2018 - 02:55 PM EDT / 2018.06.22 1855 UTC
Wind: from the NW (310 degrees) at 10 MPH (9 KT) (direction variable):0
Visibility: greater than 7 mile(s):0
Sky conditions: overcast
Temperature: 55 F (13 C)
Dew Point: 46 F (8 C)
Relative Humidity: 71%
Pressure (altimeter): 30.33 in. Hg (1027 hPa)
ob: EHDL 221855Z AUTO 31009KT 270V010 9999 BKN042 OVC046 13/08 Q1027 BLU
cycle: 19
DE KOOY:
De Kooy, Netherlands (EHKD) 52-55N 004-47E 14M
Jun 22, 2018 - 02:55 PM EDT / 2018.06.22 1855 UTC
Wind: from the NW (320 degrees) at 14 MPH (12 KT) (direction variable):0
Visibility: greater than 7 mile(s):0
Sky conditions: mostly cloudy
Temperature: 55 F (13 C)
Dew Point: 44 F (7 C)
Relative Humidity: 66%
Pressure (altimeter): 30.33 in. Hg (1027 hPa)
ob: EHKD 221855Z AUTO 32012KT 290V010 9999 SCT025 BKN030 13/07 Q1027 BLU
cycle: 19
EELDE:
Groningen Airport Eelde, Netherlands (EHGG) 53-08N 006-35E 4M
Jun 22, 2018 - 02:55 PM EDT / 2018.06.22 1855 UTC
Wind: from the WNW (300 degrees) at 10 MPH (9 KT) (direction variable):0
Visibility: greater than 7 mile(s):0
Sky conditions: overcast
Temperature: 55 F (13 C)
Dew Point: 46 F (8 C)
Relative Humidity: 71%
Pressure (altimeter): 30.27 in. Hg (1025 hPa)
ob: EHGG 221855Z AUTO 30009KT 270V330 9999 FEW027 OVC031 13/08 Q1025 NOSIG
cycle: 19
EINDHOVEN:
Eindhoven, Netherlands (EHEH) 51-27N 005-25E 28M
Jun 22, 2018 - 02:55 PM EDT / 2018.06.22 1855 UTC
Wind: from the NW (320 degrees) at 12 MPH (10 KT) (direction variable):0
Visibility: greater than 7 mile(s):0
Temperature: 55 F (13 C)
Dew Point: 46 F (8 C)
Relative Humidity: 71%
Pressure (altimeter): 30.36 in. Hg (1028 hPa)
ob: EHEH 221855Z AUTO 32010KT 260V010 9999 NCD 13/08 Q1028 BLU 30012G22KT 9999 SCT035 BKN040
cycle: 19
GILZE-RIJEN:
Gilze-Rijen, Netherlands (EHGR) 51-34N 004-56E 24M
Jun 22, 2018 - 02:55 PM EDT / 2018.06.22 1855 UTC
Wind: from the NNW (330 degrees) at 12 MPH (10 KT) (direction variable):0
Visibility: greater than 7 mile(s):0
Sky conditions: mostly cloudy
Temperature: 57 F (14 C)
Dew Point: 46 F (8 C)
Relative Humidity: 67%
Pressure (altimeter): 30.36 in. Hg (1028 hPa)
ob: EHGR 221855Z AUTO 33010KT 280V350 9999 SCT023 BKN027 BKN036 14/08 Q1028 WHT
cycle: 19
LEEUWARDEN:
Leeuwarden, Netherlands (EHLW) 53-13N 005-46E 11M
Jun 22, 2018 - 02:55 PM EDT / 2018.06.22 1855 UTC
Wind: from the NW (320 degrees) at 16 MPH (14 KT) (direction variable):0
Visibility: greater than 7 mile(s):0
Sky conditions: overcast
Temperature: 55 F (13 C)
Dew Point: 46 F (8 C)
Relative Humidity: 71%
Pressure (altimeter): 30.30 in. Hg (1026 hPa)
ob: EHLW 221855Z AUTO 32014KT 280V360 9999 FEW023 SCT029 OVC033 13/08 Q1026 BLU
cycle: 19
MAASTRICHT:
Maastricht Airport Zuid Limburg, Netherlands (EHBK) 50-55N 005-47E 116M
Jun 22, 2018 - 02:55 PM EDT / 2018.06.22 1855 UTC
Wind: from the NW (320 degrees) at 9 MPH (8 KT) (direction variable):0
Visibility: greater than 7 mile(s):0
Sky conditions: mostly clear
Temperature: 55 F (13 C)
Dew Point: 46 F (8 C)
Relative Humidity: 71%
Pressure (altimeter): 30.33 in. Hg (1027 hPa)
ob: EHBK 221855Z AUTO 32008KT 270V360 9999 FEW025 13/08 Q1027 NOSIG
cycle: 19
ROTTERDAM ZESTIENHOVEN:
Rotterdam Airport Zestienhoven, Netherlands (EHRD) 51-57N 004-27E -4M
Jun 22, 2018 - 02:55 PM EDT / 2018.06.22 1855 UTC
Wind: from the NNW (330 degrees) at 10 MPH (9 KT) (direction variable):0
Visibility: greater than 7 mile(s):0
Sky conditions: overcast
Temperature: 55 F (13 C)
Dew Point: 46 F (8 C)
Relative Humidity: 71%
Pressure (altimeter): 30.36 in. Hg (1028 hPa)
ob: EHRD 221855Z AUTO 33009KT 270V010 9999 FEW022 BKN028 OVC032 13/08 Q1028 NOSIG
cycle: 19
SOESTERBERG:
Soesterberg, Netherlands (EHSB) 52-08N 005-17E 25M
Nov 20, 2008 - 04:25 AM EST / 2008.11.20 0925 UTC
Wind: from the W (280 degrees) at 16 MPH (14 KT):0
Visibility: greater than 7 mile(s):0
Temperature: 51 F (11 C)
Dew Point: 48 F (9 C)
Relative Humidity: 87%
Pressure (altimeter): 29.83 in. Hg (1010 hPa)
ob: EHSB 200925Z AUTO 28014KT 9999 // 11/09 Q1010
cycle: 9
TWENTE:
Twenthe, Netherlands (EHTW) 52-16N 006-54E 57M
Apr 07, 2008 - 08:25 AM EDT / 2008.04.07 1225 UTC
Wind: from the N (010 degrees) at 7 MPH (6 KT):0
Sky conditions: mostly cloudy
Temperature: 46 F (8 C)
Dew Point: 24 F (-4 C)
Relative Humidity: 42%
Pressure (altimeter): 29.59 in. Hg (1002 hPa)
ob: EHTW 071225Z AUTO 01006KT //// // BKN200/// 08/M04 Q1002 RE//
cycle: 12
VALKENBURG:
Valkenburg, Netherlands (EHVB) 52-11N 004-25E 2M
Apr 01, 2010 - 03:55 AM EDT / 2010.04.01 0755 UTC
Wind: from the WSW (250 degrees) at 20 MPH (17 KT):0
Sky conditions: mostly cloudy
Temperature: 41 F (5 C)
Dew Point: 33 F (1 C)
Relative Humidity: 75%
Pressure (altimeter): 29.62 in. Hg (1003 hPa)
ob: EHVB 010755Z AUTO 25017KT 9999NDV FEW021/// BKN037/// 05/01 Q1003 BLU
cycle: 8
VLIELAND:
Vlieland, Netherlands (EHVL) 53-15N 004-55E 12M
Jun 22, 2018 - 02:55 PM EDT / 2018.06.22 1855 UTC
Wind: from the NNW (330 degrees) at 23 MPH (20 KT):0
Visibility: greater than 7 mile(s):0
Sky conditions: mostly cloudy
Temperature: 55 F (13 C)
Dew Point: 46 F (8 C)
Relative Humidity: 71%
Pressure (altimeter): 30.33 in. Hg (1027 hPa)
ob: EHVL 221855Z AUTO 33020KT 9999 SCT022 BKN025 BKN029 13/08 Q1027 WHT
cycle: 19
VOLKEL:
Volkel, Netherlands (EHVK) 51-39N 005-42E 21M
Jun 22, 2018 - 02:55 PM EDT / 2018.06.22 1855 UTC
Wind: from the WNW (290 degrees) at 7 MPH (6 KT) (direction variable):0
Visibility: greater than 7 mile(s):0
Sky conditions: partly cloudy
Temperature: 55 F (13 C)
Dew Point: 46 F (8 C)
Relative Humidity: 71%
Pressure (altimeter): 30.33 in. Hg (1027 hPa)
ob: EHVK 221855Z AUTO 29006KT 260V340 9999 SCT050 13/08 Q1027 BLU
cycle: 19
WOENSDRECHT:
Woensdrecht, Netherlands (EHWO) 51-27N 004-20E 17M
Jun 22, 2018 - 02:55 PM EDT / 2018.06.22 1855 UTC
Wind: from the NNW (330 degrees) at 9 MPH (8 KT) (direction variable):0
Visibility: greater than 7 mile(s):0
Sky conditions: overcast
Temperature: 55 F (13 C)
Dew Point: 46 F (8 C)
Relative Humidity: 71%
Pressure (altimeter): 30.39 in. Hg (1029 hPa)
ob: EHWO 221855Z AUTO 33008KT 260V020 9999 FEW020 BKN024 OVC027 13/08 Q1029 WHT
cycle: 19
Copyright © 2005 - 2018 Venhuizerweer - Alle Rechten Voorbehouden


54.167.230.68